KCMI/CMI METAR and TAF weather

Enter ICAO airport designator
Station Type Date Time Source
KCMI METAR 2019/12/09 05:53 UTC NOAA

KCMI 090553Z AUTO 17010KT 10SM FEW032 BKN055 OVC070 08/07 A2976 RMK AO2 SLP079 T00830067 10094 20083 401061028 58021


Station Type Date Time Source
KCMI Decoded METAR 2019/12/09 05:53 UTC NOAA

UNIV OF ILLINOIS-WILLARD, IL, United States (KCMI) 40-02N 088-16W 228M
Dec 09, 2019 - 12:53 AM EST / 2019.12.09 0553 UTC
Wind: from the S (170 degrees) at 12 MPH (10 KT):0
Visibility: 10 mile(s):0
Sky conditions: overcast
Temperature: 46.9 F (8.3 C)
Dew Point: 44.1 F (6.7 C)
Relative Humidity: 89%
Pressure (altimeter): 29.76 in. Hg (1007 hPa)
Pressure tendency: 0.06 inches (2.1 hPa) lower than three hours ago
ob: KCMI 090553Z AUTO 17010KT 10SM FEW032 BKN055 OVC070 08/07 A2976 RMK AO2 SLP079 T00830067 10094 20083 401061028 58021
cycle: 6

Station Type Date Time Source
KCMI TAF 2019/12/09 06:36 UTC NOAA

TAF KCMI 090535Z 0906/1006 17012KT 6SM -RA OVC018
FM090900 19012KT 3SM -RA BR OVC007
FM091400 21011KT 2SM BR VCSH OVC004
FM092100 25012G18KT P6SM OVC012
FM100000 28015G26KT P6SM BKN018

Example: see airport list